sensor_id;sensor_type;location;lat;lon;timestamp;pressure;altitude;pressure_sealevel;temperature;humidity
59877;BME280;45749;51.140;17.184;2023-11-19T00:02:19;100593.06;;;3.87;90.16
59877;BME280;45749;51.140;17.184;2023-11-19T00:04:44;100601.09;;;3.82;90.27
59877;BME280;45749;51.140;17.184;2023-11-19T00:07:09;100598.38;;;3.85;90.37
59877;BME280;45749;51.140;17.184;2023-11-19T00:09:37;100587.97;;;3.84;90.11
59877;BME280;45749;51.140;17.184;2023-11-19T00:12:05;100582.81;;;3.82;90.36
59877;BME280;45749;51.140;17.184;2023-11-19T00:14:30;100580.25;;;3.81;89.99
59877;BME280;45749;51.140;17.184;2023-11-19T00:16:56;100576.00;;;3.78;90.26
59877;BME280;45749;51.140;17.184;2023-11-19T00:19:21;100559.63;;;3.74;90.11
59877;BME280;45749;51.140;17.184;2023-11-19T00:21:47;100548.53;;;3.69;90.22
59877;BME280;45749;51.140;17.184;2023-11-19T00:24:12;100552.84;;;3.70;90.29
59877;BME280;45749;51.140;17.184;2023-11-19T00:26:38;100547.09;;;3.62;90.28
59877;BME280;45749;51.140;17.184;2023-11-19T00:29:04;100531.72;;;3.55;90.24
59877;BME280;45749;51.140;17.184;2023-11-19T00:31:29;100524.69;;;3.57;90.52
59877;BME280;45749;51.140;17.184;2023-11-19T00:33:55;100523.84;;;3.56;90.14
59877;BME280;45749;51.140;17.184;2023-11-19T00:36:20;100524.81;;;3.53;90.19
59877;BME280;45749;51.140;17.184;2023-11-19T00:38:46;100520.56;;;3.51;90.55
59877;BME280;45749;51.140;17.184;2023-11-19T00:41:11;100507.66;;;3.48;90.35
59877;BME280;45749;51.140;17.184;2023-11-19T00:43:38;100515.84;;;3.39;90.34
59877;BME280;45749;51.140;17.184;2023-11-19T00:46:07;100497.03;;;3.31;90.68
59877;BME280;45749;51.140;17.184;2023-11-19T00:48:32;100490.75;;;3.36;90.83
59877;BME280;45749;51.140;17.184;2023-11-19T00:50:57;100489.91;;;3.36;90.78
59877;BME280;45749;51.140;17.184;2023-11-19T00:53:23;100461.63;;;3.25;90.62
59877;BME280;45749;51.140;17.184;2023-11-19T00:55:48;100451.19;;;3.25;90.75
59877;BME280;45749;51.140;17.184;2023-11-19T00:58:13;100465.34;;;3.19;90.54
59877;BME280;45749;51.140;17.184;2023-11-19T01:00:39;100471.41;;;3.20;90.73
59877;BME280;45749;51.140;17.184;2023-11-19T01:03:05;100452.66;;;3.10;90.94
59877;BME280;45749;51.140;17.184;2023-11-19T01:05:32;100466.06;;;3.23;90.74
59877;BME280;45749;51.140;17.184;2023-11-19T01:07:57;100442.88;;;3.15;90.81
59877;BME280;45749;51.140;17.184;2023-11-19T01:10:23;100429.00;;;3.15;90.67
59877;BME280;45749;51.140;17.184;2023-11-19T01:12:48;100428.88;;;3.18;90.32
59877;BME280;45749;51.140;17.184;2023-11-19T01:15:13;100422.03;;;3.15;90.30
59877;BME280;45749;51.140;17.184;2023-11-19T01:17:39;100411.22;;;3.02;90.44
59877;BME280;45749;51.140;17.184;2023-11-19T01:20:05;100401.13;;;2.95;90.36
59877;BME280;45749;51.140;17.184;2023-11-19T01:22:31;100389.13;;;2.91;90.47
59877;BME280;45749;51.140;17.184;2023-11-19T01:24:57;100385.59;;;2.92;90.58
59877;BME280;45749;51.140;17.184;2023-11-19T01:27:26;100383.72;;;2.95;90.63
59877;BME280;45749;51.140;17.184;2023-11-19T01:29:51;100373.72;;;2.85;90.49
59877;BME280;45749;51.140;17.184;2023-11-19T01:32:17;100375.41;;;2.86;90.36
59877;BME280;45749;51.140;17.184;2023-11-19T01:34:42;100359.28;;;2.76;90.31
59877;BME280;45749;51.140;17.184;2023-11-19T01:37:07;100367.09;;;2.76;90.46
59877;BME280;45749;51.140;17.184;2023-11-19T01:39:35;100361.06;;;2.75;90.61
59877;BME280;45749;51.140;17.184;2023-11-19T01:42:01;100351.78;;;2.68;90.71
59877;BME280;45749;51.140;17.184;2023-11-19T01:44:26;100343.13;;;2.68;90.60
59877;BME280;45749;51.140;17.184;2023-11-19T01:46:52;100350.88;;;2.69;90.86
59877;BME280;45749;51.140;17.184;2023-11-19T01:49:18;100333.66;;;2.65;90.56
59877;BME280;45749;51.140;17.184;2023-11-19T01:51:45;100335.56;;;2.62;90.61
59877;BME280;45749;51.140;17.184;2023-11-19T01:54:12;100353.47;;;2.69;90.60
59877;BME280;45749;51.140;17.184;2023-11-19T01:56:38;100349.97;;;2.70;90.97
59877;BME280;45749;51.140;17.184;2023-11-19T01:59:06;100344.78;;;2.70;90.84
59877;BME280;45749;51.140;17.184;2023-11-19T02:01:32;100344.66;;;2.73;90.64
59877;BME280;45749;51.140;17.184;2023-11-19T02:03:59;100344.88;;;2.67;90.39
59877;BME280;45749;51.140;17.184;2023-11-19T02:06:27;100327.66;;;2.63;90.54
59877;BME280;45749;51.140;17.184;2023-11-19T02:08:53;100319.81;;;2.65;90.64
59877;BME280;45749;51.140;17.184;2023-11-19T02:11:18;100320.44;;;2.70;91.01
59877;BME280;45749;51.140;17.184;2023-11-19T02:13:44;100308.56;;;2.63;90.75
59877;BME280;45749;51.140;17.184;2023-11-19T02:16:09;100330.03;;;2.69;90.82
59877;BME280;45749;51.140;17.184;2023-11-19T02:18:36;100324.78;;;2.71;90.64
59877;BME280;45749;51.140;17.184;2023-11-19T02:21:02;100321.06;;;2.76;90.98
59877;BME280;45749;51.140;17.184;2023-11-19T02:23:28;100315.91;;;2.75;90.57
59877;BME280;45749;51.140;17.184;2023-11-19T02:26:02;100307.13;;;2.77;90.66
59877;BME280;45749;51.140;17.184;2023-11-19T02:28:27;100309.78;;;2.76;90.81
59877;BME280;45749;51.140;17.184;2023-11-19T02:30:53;100295.97;;;2.74;90.39
59877;BME280;45749;51.140;17.184;2023-11-19T02:33:18;100299.59;;;2.70;90.72
59877;BME280;45749;51.140;17.184;2023-11-19T02:35:43;100290.19;;;2.67;90.59
59877;BME280;45749;51.140;17.184;2023-11-19T02:38:09;100290.94;;;2.69;90.58
59877;BME280;45749;51.140;17.184;2023-11-19T02:40:34;100277.06;;;2.69;90.82
59877;BME280;45749;51.140;17.184;2023-11-19T02:42:59;100272.81;;;2.66;90.72
59877;BME280;45749;51.140;17.184;2023-11-19T02:45:26;100275.25;;;2.71;90.67
59877;BME280;45749;51.140;17.184;2023-11-19T02:47:52;100285.72;;;2.69;90.91
59877;BME280;45749;51.140;17.184;2023-11-19T02:50:19;100267.63;;;2.66;90.83
59877;BME280;45749;51.140;17.184;2023-11-19T02:52:51;100273.75;;;2.65;90.88
59877;BME280;45749;51.140;17.184;2023-11-19T02:55:17;100271.34;;;2.61;90.85
59877;BME280;45749;51.140;17.184;2023-11-19T02:57:43;100278.97;;;2.65;91.22
59877;BME280;45749;51.140;17.184;2023-11-19T03:00:13;100265.09;;;2.65;90.84
59877;BME280;45749;51.140;17.184;2023-11-19T03:02:40;100244.38;;;2.62;90.86
59877;BME280;45749;51.140;17.184;2023-11-19T03:05:10;100241.25;;;2.53;90.84
59877;BME280;45749;51.140;17.184;2023-11-19T03:07:37;100241.16;;;2.55;90.91
59877;BME280;45749;51.140;17.184;2023-11-19T03:10:02;100235.00;;;2.57;90.85
59877;BME280;45749;51.140;17.184;2023-11-19T03:12:30;100221.88;;;2.59;91.08
59877;BME280;45749;51.140;17.184;2023-11-19T03:14:55;100214.91;;;2.59;90.83
59877;BME280;45749;51.140;17.184;2023-11-19T03:17:21;100211.41;;;2.61;90.90
59877;BME280;45749;51.140;17.184;2023-11-19T03:19:47;100208.88;;;2.59;90.94
59877;BME280;45749;51.140;17.184;2023-11-19T03:22:13;100198.56;;;2.56;90.94
59877;BME280;45749;51.140;17.184;2023-11-19T03:24:39;100197.72;;;2.55;91.04
59877;BME280;45749;51.140;17.184;2023-11-19T03:27:04;100197.00;;;2.52;90.87
59877;BME280;45749;51.140;17.184;2023-11-19T03:29:30;100194.47;;;2.50;91.11
59877;BME280;45749;51.140;17.184;2023-11-19T03:31:55;100191.13;;;2.47;90.78
59877;BME280;45749;51.140;17.184;2023-11-19T03:34:20;100190.28;;;2.46;91.03
59877;BME280;45749;51.140;17.184;2023-11-19T03:36:46;100192.03;;;2.46;91.03
59877;BME280;45749;51.140;17.184;2023-11-19T03:39:11;100196.34;;;2.47;91.21
59877;BME280;45749;51.140;17.184;2023-11-19T03:41:37;100185.19;;;2.43;90.90
59877;BME280;45749;51.140;17.184;2023-11-19T03:44:02;100180.00;;;2.43;90.98
59877;BME280;45749;51.140;17.184;2023-11-19T03:46:27;100150.00;;;2.34;91.23
59877;BME280;45749;51.140;17.184;2023-11-19T03:48:54;100159.16;;;2.43;91.17
59877;BME280;45749;51.140;17.184;2023-11-19T03:51:20;100152.50;;;2.36;91.21
59877;BME280;45749;51.140;17.184;2023-11-19T03:53:45;100151.53;;;2.39;91.11
59877;BME280;45749;51.140;17.184;2023-11-19T03:56:11;100147.31;;;2.36;91.16
59877;BME280;45749;51.140;17.184;2023-11-19T03:58:38;100137.72;;;2.37;91.17
59877;BME280;45749;51.140;17.184;2023-11-19T04:01:10;100134.38;;;2.34;91.34
59877;BME280;45749;51.140;17.184;2023-11-19T04:03:38;100120.69;;;2.29;91.10
59877;BME280;45749;51.140;17.184;2023-11-19T04:06:03;100119.63;;;2.33;91.29
59877;BME280;45749;51.140;17.184;2023-11-19T04:08:29;100127.38;;;2.35;91.00
59877;BME280;45749;51.140;17.184;2023-11-19T04:10:54;100132.59;;;2.35;91.21
59877;BME280;45749;51.140;17.184;2023-11-19T04:13:19;100119.59;;;2.35;91.47
59877;BME280;45749;51.140;17.184;2023-11-19T04:15:45;100104.94;;;2.32;91.23
59877;BME280;45749;51.140;17.184;2023-11-19T04:18:10;100083.47;;;2.27;91.08
59877;BME280;45749;51.140;17.184;2023-11-19T04:20:35;100080.56;;;2.33;91.25
59877;BME280;45749;51.140;17.184;2023-11-19T04:23:01;100075.44;;;2.32;91.14
59877;BME280;45749;51.140;17.184;2023-11-19T04:25:27;100056.63;;;2.25;91.19
59877;BME280;45749;51.140;17.184;2023-11-19T04:27:52;100050.50;;;2.26;91.22
59877;BME280;45749;51.140;17.184;2023-11-19T04:30:18;100046.34;;;2.22;91.20
59877;BME280;45749;51.140;17.184;2023-11-19T04:32:43;100040.09;;;2.26;91.27
59877;BME280;45749;51.140;17.184;2023-11-19T04:35:09;100039.19;;;2.27;91.43
59877;BME280;45749;51.140;17.184;2023-11-19T04:37:37;100026.94;;;2.29;91.41
59877;BME280;45749;51.140;17.184;2023-11-19T04:40:03;100009.69;;;2.27;91.33
59877;BME280;45749;51.140;17.184;2023-11-19T04:42:32;99993.44;;;2.22;91.33
59877;BME280;45749;51.140;17.184;2023-11-19T04:44:57;100005.47;;;2.24;91.64
59877;BME280;45749;51.140;17.184;2023-11-19T04:47:23;100018.28;;;2.29;91.62
59877;BME280;45749;51.140;17.184;2023-11-19T04:49:48;100016.47;;;2.31;91.78
59877;BME280;45749;51.140;17.184;2023-11-19T04:52:13;100006.09;;;2.29;91.34
59877;BME280;45749;51.140;17.184;2023-11-19T04:54:42;100013.88;;;2.31;91.47
59877;BME280;45749;51.140;17.184;2023-11-19T04:57:10;100005.28;;;2.29;91.64
59877;BME280;45749;51.140;17.184;2023-11-19T04:59:39;99999.22;;;2.28;91.58
59877;BME280;45749;51.140;17.184;2023-11-19T05:02:04;99991.53;;;2.25;91.75
59877;BME280;45749;51.140;17.184;2023-11-19T05:04:30;99994.72;;;2.32;91.70
59877;BME280;45749;51.140;17.184;2023-11-19T05:06:56;99978.59;;;2.24;91.62
59877;BME280;45749;51.140;17.184;2023-11-19T05:09:21;99988.66;;;2.31;91.85
59877;BME280;45749;51.140;17.184;2023-11-19T05:11:46;99992.91;;;2.34;91.65
59877;BME280;45749;51.140;17.184;2023-11-19T05:14:12;99990.34;;;2.32;91.88
59877;BME280;45749;51.140;17.184;2023-11-19T05:16:40;99992.13;;;2.32;91.99
59877;BME280;45749;51.140;17.184;2023-11-19T05:19:06;99982.63;;;2.31;91.60
59877;BME280;45749;51.140;17.184;2023-11-19T05:21:31;99971.41;;;2.29;91.86
59877;BME280;45749;51.140;17.184;2023-11-19T05:23:56;99951.56;;;2.26;91.85
59877;BME280;45749;51.140;17.184;2023-11-19T05:26:23;99936.78;;;2.27;91.98
59877;BME280;45749;51.140;17.184;2023-11-19T05:28:49;99925.53;;;2.26;92.03
59877;BME280;45749;51.140;17.184;2023-11-19T05:31:16;99943.56;;;2.31;92.05
59877;BME280;45749;51.140;17.184;2023-11-19T05:33:41;99938.28;;;2.32;92.23
59877;BME280;45749;51.140;17.184;2023-11-19T05:36:07;99927.25;;;2.27;92.04
59877;BME280;45749;51.140;17.184;2023-11-19T05:38:33;99921.03;;;2.30;92.27
59877;BME280;45749;51.140;17.184;2023-11-19T05:40:59;99910.47;;;2.33;92.32
59877;BME280;45749;51.140;17.184;2023-11-19T05:43:24;99920.13;;;2.31;92.00
59877;BME280;45749;51.140;17.184;2023-11-19T05:45:49;99919.44;;;2.27;92.24
59877;BME280;45749;51.140;17.184;2023-11-19T05:48:15;99938.13;;;2.35;92.36
59877;BME280;45749;51.140;17.184;2023-11-19T05:50:40;99938.09;;;2.37;92.28
59877;BME280;45749;51.140;17.184;2023-11-19T05:53:05;99920.75;;;2.36;92.22
59877;BME280;45749;51.140;17.184;2023-11-19T05:55:34;99923.22;;;2.39;92.17
59877;BME280;45749;51.140;17.184;2023-11-19T05:58:00;99902.38;;;2.39;92.40
59877;BME280;45749;51.140;17.184;2023-11-19T06:00:25;99905.84;;;2.40;92.23
59877;BME280;45749;51.140;17.184;2023-11-19T06:02:51;99891.41;;;2.32;92.21
59877;BME280;45749;51.140;17.184;2023-11-19T06:05:17;99911.00;;;2.41;92.43
59877;BME280;45749;51.140;17.184;2023-11-19T06:07:43;99908.38;;;2.41;92.15
59877;BME280;45749;51.140;17.184;2023-11-19T06:10:08;99905.69;;;2.43;92.39
59877;BME280;45749;51.140;17.184;2023-11-19T06:12:35;99892.69;;;2.43;92.11
59877;BME280;45749;51.140;17.184;2023-11-19T06:15:06;99889.88;;;2.47;92.33
59877;BME280;45749;51.140;17.184;2023-11-19T06:17:31;99885.56;;;2.46;92.37
59877;BME280;45749;51.140;17.184;2023-11-19T06:20:00;99880.34;;;2.46;92.29
59877;BME280;45749;51.140;17.184;2023-11-19T06:22:25;99884.59;;;2.49;92.29
59877;BME280;45749;51.140;17.184;2023-11-19T06:24:50;99887.03;;;2.52;92.60
59877;BME280;45749;51.140;17.184;2023-11-19T06:27:15;99890.56;;;2.51;92.55
59877;BME280;45749;51.140;17.184;2023-11-19T06:29:41;99880.03;;;2.54;92.61
59877;BME280;45749;51.140;17.184;2023-11-19T06:32:07;99866.06;;;2.55;92.50
59877;BME280;45749;51.140;17.184;2023-11-19T06:34:34;99866.06;;;2.55;92.60
59877;BME280;45749;51.140;17.184;2023-11-19T06:36:59;99866.75;;;2.58;92.33
59877;BME280;45749;51.140;17.184;2023-11-19T06:39:25;99848.91;;;2.51;92.40
59877;BME280;45749;51.140;17.184;2023-11-19T06:41:50;99851.09;;;2.60;92.65
59877;BME280;45749;51.140;17.184;2023-11-19T06:44:15;99842.47;;;2.58;92.57
59877;BME280;45749;51.140;17.184;2023-11-19T06:46:41;99854.44;;;2.62;92.40
59877;BME280;45749;51.140;17.184;2023-11-19T06:49:06;99850.91;;;2.63;92.51
59877;BME280;45749;51.140;17.184;2023-11-19T06:51:33;99838.59;;;2.67;92.57
59877;BME280;45749;51.140;17.184;2023-11-19T06:53:59;99835.91;;;2.68;92.60
59877;BME280;45749;51.140;17.184;2023-11-19T06:56:25;99831.53;;;2.69;92.74
59877;BME280;45749;51.140;17.184;2023-11-19T06:58:51;99814.16;;;2.69;92.55
59877;BME280;45749;51.140;17.184;2023-11-19T07:01:17;99812.31;;;2.71;92.80
59877;BME280;45749;51.140;17.184;2023-11-19T07:03:44;99800.06;;;2.73;92.78
59877;BME280;45749;51.140;17.184;2023-11-19T07:06:10;99806.03;;;2.75;92.64
59877;BME280;45749;51.140;17.184;2023-11-19T07:08:35;99789.56;;;2.75;92.55
59877;BME280;45749;51.140;17.184;2023-11-19T07:11:01;99790.25;;;2.78;92.73
59877;BME280;45749;51.140;17.184;2023-11-19T07:13:27;99784.22;;;2.78;92.69
59877;BME280;45749;51.140;17.184;2023-11-19T07:15:53;99779.69;;;2.81;92.62
59877;BME280;45749;51.140;17.184;2023-11-19T07:18:19;99785.69;;;2.84;92.82
59877;BME280;45749;51.140;17.184;2023-11-19T07:20:47;99774.31;;;2.85;92.74
59877;BME280;45749;51.140;17.184;2023-11-19T07:23:12;99770.72;;;2.87;92.74
59877;BME280;45749;51.140;17.184;2023-11-19T07:25:40;99768.19;;;2.86;92.65
59877;BME280;45749;51.140;17.184;2023-11-19T07:28:05;99762.81;;;2.89;92.96
59877;BME280;45749;51.140;17.184;2023-11-19T07:30:30;99764.44;;;2.91;92.88
59877;BME280;45749;51.140;17.184;2023-11-19T07:32:56;99759.13;;;2.93;92.91
59877;BME280;45749;51.140;17.184;2023-11-19T07:35:21;99755.63;;;2.94;92.56
59877;BME280;45749;51.140;17.184;2023-11-19T07:37:47;99761.59;;;2.96;92.67
59877;BME280;45749;51.140;17.184;2023-11-19T07:40:13;99750.25;;;2.97;92.67
59877;BME280;45749;51.140;17.184;2023-11-19T07:42:38;99753.47;;;3.02;92.88
59877;BME280;45749;51.140;17.184;2023-11-19T07:45:04;99747.50;;;3.00;92.64
59877;BME280;45749;51.140;17.184;2023-11-19T07:47:30;99757.69;;;3.04;92.76
59877;BME280;45749;51.140;17.184;2023-11-19T07:49:56;99749.03;;;3.04;92.39
59877;BME280;45749;51.140;17.184;2023-11-19T07:52:21;99736.00;;;3.04;92.66
59877;BME280;45749;51.140;17.184;2023-11-19T07:54:46;99736.69;;;3.08;92.74
59877;BME280;45749;51.140;17.184;2023-11-19T07:57:11;99727.34;;;3.03;92.52
59877;BME280;45749;51.140;17.184;2023-11-19T07:59:37;99736.59;;;3.09;92.45
59877;BME280;45749;51.140;17.184;2023-11-19T08:02:02;99733.97;;;3.09;92.58
59877;BME280;45749;51.140;17.184;2023-11-19T08:04:28;99736.38;;;3.14;92.64
59877;BME280;45749;51.140;17.184;2023-11-19T08:06:54;99737.22;;;3.14;92.35
59877;BME280;45749;51.140;17.184;2023-11-19T08:09:19;99725.84;;;3.15;92.67
59877;BME280;45749;51.140;17.184;2023-11-19T08:11:44;99726.63;;;3.17;92.61
59877;BME280;45749;51.140;17.184;2023-11-19T08:14:11;99722.25;;;3.18;92.84
59877;BME280;45749;51.140;17.184;2023-11-19T08:16:36;99707.53;;;3.17;92.86
59877;BME280;45749;51.140;17.184;2023-11-19T08:19:02;99707.22;;;3.23;92.65
59877;BME280;45749;51.140;17.184;2023-11-19T08:21:28;99701.13;;;3.22;92.73
59877;BME280;45749;51.140;17.184;2023-11-19T08:23:53;99706.19;;;3.25;92.51
59877;BME280;45749;51.140;17.184;2023-11-19T08:26:19;99701.91;;;3.24;92.50
59877;BME280;45749;51.140;17.184;2023-11-19T08:28:44;99683.06;;;3.19;92.45
59877;BME280;45749;51.140;17.184;2023-11-19T08:31:09;99684.22;;;3.14;92.41
59877;BME280;45749;51.140;17.184;2023-11-19T08:33:34;99682.31;;;3.17;92.62
59877;BME280;45749;51.140;17.184;2023-11-19T08:36:00;99679.69;;;3.17;92.79
59877;BME280;45749;51.140;17.184;2023-11-19T08:38:26;99668.59;;;3.14;92.80
59877;BME280;45749;51.140;17.184;2023-11-19T08:40:51;99663.28;;;3.15;92.91
59877;BME280;45749;51.140;17.184;2023-11-19T08:43:17;99648.72;;;3.11;92.75
59877;BME280;45749;51.140;17.184;2023-11-19T08:45:42;99646.97;;;3.12;92.93
59877;BME280;45749;51.140;17.184;2023-11-19T08:48:08;99633.25;;;3.08;92.64
59877;BME280;45749;51.140;17.184;2023-11-19T08:50:33;99636.84;;;3.05;92.79
59877;BME280;45749;51.140;17.184;2023-11-19T08:52:58;99631.94;;;2.99;92.98
59877;BME280;45749;51.140;17.184;2023-11-19T08:55:23;99631.72;;;3.04;93.16
59877;BME280;45749;51.140;17.184;2023-11-19T08:57:49;99627.66;;;2.98;92.88
59877;BME280;45749;51.140;17.184;2023-11-19T09:00:14;99615.63;;;2.96;93.07
59877;BME280;45749;51.140;17.184;2023-11-19T09:02:39;99612.13;;;2.97;93.15
59877;BME280;45749;51.140;17.184;2023-11-19T09:05:05;99617.66;;;2.91;92.92
59877;BME280;45749;51.140;17.184;2023-11-19T09:07:32;99620.31;;;2.89;93.08
59877;BME280;45749;51.140;17.184;2023-11-19T09:09:57;99617.72;;;2.89;93.13
59877;BME280;45749;51.140;17.184;2023-11-19T09:12:23;99602.25;;;2.86;93.29
59877;BME280;45749;51.140;17.184;2023-11-19T09:14:48;99602.03;;;2.91;93.46
59877;BME280;45749;51.140;17.184;2023-11-19T09:17:14;99581.41;;;2.86;93.41
59877;BME280;45749;51.140;17.184;2023-11-19T09:19:39;99590.81;;;2.89;93.51
59877;BME280;45749;51.140;17.184;2023-11-19T09:22:05;99589.00;;;2.91;93.78
59877;BME280;45749;51.140;17.184;2023-11-19T09:24:30;99590.75;;;2.90;93.67
59877;BME280;45749;51.140;17.184;2023-11-19T09:26:55;99592.44;;;2.91;94.11
59877;BME280;45749;51.140;17.184;2023-11-19T09:29:21;99581.00;;;2.94;94.16
59877;BME280;45749;51.140;17.184;2023-11-19T09:31:46;99579.16;;;2.96;94.25
59877;BME280;45749;51.140;17.184;2023-11-19T09:34:12;99559.50;;;2.90;94.43
59877;BME280;45749;51.140;17.184;2023-11-19T09:36:37;99569.16;;;3.04;94.43
59877;BME280;45749;51.140;17.184;2023-11-19T09:39:02;99576.66;;;3.10;94.86
59877;BME280;45749;51.140;17.184;2023-11-19T09:41:30;99574.56;;;3.17;94.62
59877;BME280;45749;51.140;17.184;2023-11-19T09:43:55;99565.91;;;3.16;94.42
59877;BME280;45749;51.140;17.184;2023-11-19T09:46:21;99555.06;;;3.24;94.58
59877;BME280;45749;51.140;17.184;2023-11-19T09:48:52;99558.59;;;3.23;94.57
59877;BME280;45749;51.140;17.184;2023-11-19T09:51:20;99554.28;;;3.22;94.24
59877;BME280;45749;51.140;17.184;2023-11-19T09:53:45;99554.13;;;3.25;94.63
59877;BME280;45749;51.140;17.184;2023-11-19T09:56:12;99545.56;;;3.23;94.61
59877;BME280;45749;51.140;17.184;2023-11-19T09:58:37;99544.19;;;3.32;94.85
59877;BME280;45749;51.140;17.184;2023-11-19T10:01:03;99533.53;;;3.36;94.84
59877;BME280;45749;51.140;17.184;2023-11-19T10:03:35;99514.78;;;3.29;94.57
59877;BME280;45749;51.140;17.184;2023-11-19T10:06:03;99503.47;;;3.29;94.98
59877;BME280;45749;51.140;17.184;2023-11-19T10:08:29;99505.50;;;3.40;95.10
59877;BME280;45749;51.140;17.184;2023-11-19T10:10:54;99498.25;;;3.45;95.06
59877;BME280;45749;51.140;17.184;2023-11-19T10:13:26;99480.34;;;3.39;95.47
59877;BME280;45749;51.140;17.184;2023-11-19T10:15:51;99490.19;;;3.49;95.38
59877;BME280;45749;51.140;17.184;2023-11-19T10:18:17;99472.94;;;3.47;95.58
59877;BME280;45749;51.140;17.184;2023-11-19T10:20:43;99477.63;;;3.56;95.52
59877;BME280;45749;51.140;17.184;2023-11-19T10:23:09;99473.16;;;3.58;95.66
59877;BME280;45749;51.140;17.184;2023-11-19T10:25:35;99468.09;;;3.55;95.80
59877;BME280;45749;51.140;17.184;2023-11-19T10:28:01;99453.81;;;3.62;95.88
59877;BME280;45749;51.140;17.184;2023-11-19T10:30:29;99457.63;;;3.71;96.01
59877;BME280;45749;51.140;17.184;2023-11-19T10:33:07;99455.69;;;3.74;95.92
59877;BME280;45749;51.140;17.184;2023-11-19T10:35:34;99439.84;;;3.78;96.28
59877;BME280;45749;51.140;17.184;2023-11-19T10:38:13;99416.34;;;3.78;96.51
59877;BME280;45749;51.140;17.184;2023-11-19T10:40:38;99401.28;;;3.83;96.66
59877;BME280;45749;51.140;17.184;2023-11-19T10:43:07;99412.94;;;3.91;96.42
59877;BME280;45749;51.140;17.184;2023-11-19T10:45:34;99408.75;;;3.89;96.43
59877;BME280;45749;51.140;17.184;2023-11-19T10:48:02;99407.44;;;3.96;96.67
59877;BME280;45749;51.140;17.184;2023-11-19T10:50:31;99402.97;;;3.98;96.67
59877;BME280;45749;51.140;17.184;2023-11-19T10:52:57;99398.31;;;4.03;97.01
59877;BME280;45749;51.140;17.184;2023-11-19T10:55:29;99403.16;;;4.09;96.95
59877;BME280;45749;51.140;17.184;2023-11-19T10:58:03;99401.09;;;4.14;97.03
59877;BME280;45749;51.140;17.184;2023-11-19T11:00:47;99376.75;;;4.14;97.02
59877;BME280;45749;51.140;17.184;2023-11-19T11:03:20;99387.84;;;4.17;96.89
59877;BME280;45749;51.140;17.184;2023-11-19T11:05:47;99376.50;;;4.18;97.13
59877;BME280;45749;51.140;17.184;2023-11-19T11:08:13;99396.72;;;4.29;97.06
59877;BME280;45749;51.140;17.184;2023-11-19T11:13:18;99373.03;;;4.32;96.95
59877;BME280;45749;51.140;17.184;2023-11-19T11:15:44;99368.53;;;4.34;96.91
59877;BME280;45749;51.140;17.184;2023-11-19T11:18:12;99362.84;;;4.28;97.05
59877;BME280;45749;51.140;17.184;2023-11-19T11:20:38;99371.16;;;4.34;97.06
59877;BME280;45749;51.140;17.184;2023-11-19T11:28:59;99375.03;;;4.56;97.44
59877;BME280;45749;51.140;17.184;2023-11-19T11:31:48;99371.94;;;4.63;97.19
59877;BME280;45749;51.140;17.184;2023-11-19T11:37:33;99345.81;;;4.63;97.47
59877;BME280;45749;51.140;17.184;2023-11-19T11:40:01;99360.53;;;4.79;97.29
59877;BME280;45749;51.140;17.184;2023-11-19T11:42:32;99357.41;;;4.86;97.36
59877;BME280;45749;51.140;17.184;2023-11-19T11:45:01;99351.25;;;4.87;97.20
59877;BME280;45749;51.140;17.184;2023-11-19T11:50:12;99346.47;;;4.94;97.27
59877;BME280;45749;51.140;17.184;2023-11-19T11:57:50;99356.75;;;4.97;97.49
59877;BME280;45749;51.140;17.184;2023-11-19T12:00:38;99353.81;;;5.02;97.67
59877;BME280;45749;51.140;17.184;2023-11-19T12:03:04;99339.91;;;5.01;97.90
59877;BME280;45749;51.140;17.184;2023-11-19T12:05:31;99323.47;;;4.99;97.79
59877;BME280;45749;51.140;17.184;2023-11-19T12:08:03;99315.34;;;5.04;97.86
59877;BME280;45749;51.140;17.184;2023-11-19T12:10:31;99328.66;;;5.13;97.87
59877;BME280;45749;51.140;17.184;2023-11-19T12:13:05;99324.06;;;5.17;98.14
59877;BME280;45749;51.140;17.184;2023-11-19T12:15:32;99319.44;;;5.21;97.89
59877;BME280;45749;51.140;17.184;2023-11-19T12:17:57;99301.63;;;5.13;97.79
59877;BME280;45749;51.140;17.184;2023-11-19T12:20:25;99300.72;;;5.14;98.28
59877;BME280;45749;51.140;17.184;2023-11-19T12:22:51;99294.34;;;5.18;98.32
59877;BME280;45749;51.140;17.184;2023-11-19T12:25:17;99297.50;;;5.23;98.06
59877;BME280;45749;51.140;17.184;2023-11-19T12:27:46;99293.09;;;5.24;97.99
59877;BME280;45749;51.140;17.184;2023-11-19T12:30:12;99286.19;;;5.35;98.43
59877;BME280;45749;51.140;17.184;2023-11-19T12:32:43;99293.00;;;5.38;98.39
59877;BME280;45749;51.140;17.184;2023-11-19T12:35:10;99281.28;;;5.44;98.65
59877;BME280;45749;51.140;17.184;2023-11-19T12:37:46;99268.50;;;5.39;98.39
59877;BME280;45749;51.140;17.184;2023-11-19T12:42:48;99260.66;;;5.52;98.66
59877;BME280;45749;51.140;17.184;2023-11-19T12:45:13;99263.47;;;5.61;98.70
59877;BME280;45749;51.140;17.184;2023-11-19T12:47:39;99263.47;;;5.61;98.56
59877;BME280;45749;51.140;17.184;2023-11-19T12:50:06;99259.59;;;5.67;98.82
59877;BME280;45749;51.140;17.184;2023-11-19T12:52:33;99260.97;;;5.73;98.85
59877;BME280;45749;51.140;17.184;2023-11-19T12:54:58;99268.28;;;5.80;98.49
59877;BME280;45749;51.140;17.184;2023-11-19T12:57:41;99270.34;;;5.88;98.21
59877;BME280;45749;51.140;17.184;2023-11-19T13:00:07;99248.59;;;5.75;98.36
59877;BME280;45749;51.140;17.184;2023-11-19T13:02:47;99257.06;;;5.78;98.56
59877;BME280;45749;51.140;17.184;2023-11-19T13:05:32;99246.72;;;5.77;98.72
59877;BME280;45749;51.140;17.184;2023-11-19T13:08:03;99265.34;;;5.85;98.98
59877;BME280;45749;51.140;17.184;2023-11-19T13:10:29;99250.44;;;5.85;99.25
59877;BME280;45749;51.140;17.184;2023-11-19T13:13:06;99249.63;;;5.98;99.25
59877;BME280;45749;51.140;17.184;2023-11-19T13:15:33;99237.97;;;6.02;99.25